createdAt,value
2022-08-14T00:00:05.026Z,3.13
2022-08-14T00:02:33.835Z,3.40
2022-08-14T00:05:06.528Z,2.90
2022-08-14T00:07:42.071Z,3.40
2022-08-14T00:10:51.406Z,3.30
2022-08-14T00:13:06.881Z,3.50
2022-08-14T00:15:44.320Z,3.00
2022-08-14T00:18:30.766Z,3.17
2022-08-14T00:21:11.180Z,3.07
2022-08-14T00:23:41.629Z,3.40
2022-08-14T00:26:21.627Z,3.33
2022-08-14T00:28:51.802Z,3.50
2022-08-14T00:31:34.659Z,3.03
2022-08-14T00:34:37.376Z,3.30
2022-08-14T00:36:55.663Z,3.20
2022-08-14T00:39:29.195Z,3.50
2022-08-14T00:41:58.981Z,3.13
2022-08-14T00:44:32.039Z,3.20
2022-08-14T00:47:03.783Z,2.97
2022-08-14T00:49:37.951Z,3.60
2022-08-14T00:52:18.224Z,3.37
2022-08-14T00:54:57.852Z,3.63
2022-08-14T00:57:28.713Z,3.20
2022-08-14T00:59:57.701Z,3.57
2022-08-14T01:02:28.360Z,3.40
2022-08-14T01:05:01.657Z,3.03
2022-08-14T01:07:47.166Z,3.37
2022-08-14T01:10:25.125Z,3.50
2022-08-14T01:13:07.166Z,3.30
2022-08-14T01:15:57.689Z,3.20
2022-08-14T01:18:42.784Z,3.27
2022-08-14T01:21:34.810Z,3.43
2022-08-14T01:24:09.779Z,3.10
2022-08-14T01:26:39.346Z,3.60
2022-08-14T01:29:10.889Z,3.10
2022-08-14T01:32:06.401Z,3.63
2022-08-14T01:35:17.299Z,3.73
2022-08-14T01:37:31.515Z,2.97
2022-08-14T01:40:00.417Z,3.20
2022-08-14T01:42:36.035Z,3.37
2022-08-14T01:45:12.342Z,3.40
2022-08-14T01:47:46.560Z,3.53
2022-08-14T01:50:18.297Z,3.37
2022-08-14T01:52:59.040Z,4.20
2022-08-14T01:55:30.619Z,3.27
2022-08-14T01:58:01.389Z,3.30
2022-08-14T02:00:36.162Z,2.80
2022-08-14T02:03:06.760Z,3.30
2022-08-14T02:05:38.419Z,3.57
2022-08-14T02:08:10.347Z,3.00
2022-08-14T02:10:46.076Z,3.30
2022-08-14T02:13:16.559Z,2.97
2022-08-14T02:15:45.803Z,3.13
2022-08-14T02:18:18.169Z,3.40
2022-08-14T02:20:48.839Z,3.20
2022-08-14T02:23:29.113Z,3.27
2022-08-14T02:26:24.304Z,3.20
2022-08-14T02:28:56.494Z,3.60
2022-08-14T02:31:42.024Z,3.63
2022-08-14T02:34:20.124Z,3.43
2022-08-14T02:37:04.987Z,3.10
2022-08-14T02:39:37.474Z,3.53
2022-08-14T02:42:06.865Z,3.30
2022-08-14T02:44:43.077Z,3.27
2022-08-14T02:47:19.169Z,3.30
2022-08-14T02:49:54.923Z,3.67
2022-08-14T02:52:56.825Z,3.53
2022-08-14T02:55:20.574Z,3.40
2022-08-14T02:57:58.194Z,3.00
2022-08-14T03:00:35.455Z,3.50
2022-08-14T03:03:08.552Z,3.40
2022-08-14T03:05:41.127Z,3.40
2022-08-14T03:08:11.166Z,3.77
2022-08-14T03:10:48.612Z,3.90
2022-08-14T03:13:20.954Z,3.77
2022-08-14T03:15:56.312Z,3.60
2022-08-14T03:18:31.679Z,3.17
2022-08-14T03:21:01.909Z,4.43
2022-08-14T03:23:37.926Z,3.50
2022-08-14T03:26:13.077Z,3.60
2022-08-14T03:28:47.427Z,3.50
2022-08-14T03:31:16.259Z,3.57
2022-08-14T03:33:45.307Z,3.50
2022-08-14T03:37:37.371Z,4.10
2022-08-14T03:39:20.997Z,3.60
2022-08-14T03:41:59.967Z,3.40
2022-08-14T03:45:26.035Z,3.40
2022-08-14T03:47:22.883Z,3.57
2022-08-14T03:50:12.140Z,3.43
2022-08-14T03:52:48.111Z,3.83
2022-08-14T03:55:24.728Z,3.73
2022-08-14T03:58:01.578Z,3.90
2022-08-14T04:00:42.921Z,3.77
2022-08-14T04:03:18.059Z,3.33
2022-08-14T04:05:52.342Z,3.83
2022-08-14T04:08:29.410Z,3.47
2022-08-14T04:11:01.007Z,3.70
2022-08-14T04:13:33.972Z,3.70
2022-08-14T04:16:12.715Z,3.87
2022-08-14T04:18:42.793Z,4.07
2022-08-14T04:21:23.016Z,4.40
2022-08-14T04:23:57.250Z,3.80
2022-08-14T04:26:42.146Z,3.90
2022-08-14T04:29:15.227Z,4.03
2022-08-14T04:33:10.597Z,4.10
2022-08-14T04:34:36.417Z,3.83
2022-08-14T04:37:25.362Z,3.90
2022-08-14T04:40:12.157Z,4.03
2022-08-14T04:42:58.198Z,4.17
2022-08-14T04:45:40.605Z,4.20
2022-08-14T04:48:38.912Z,4.10
2022-08-14T04:51:06.053Z,3.67
2022-08-14T04:53:36.031Z,4.13
2022-08-14T04:56:29.990Z,3.47
2022-08-14T04:59:01.532Z,4.00
2022-08-14T05:01:40.208Z,3.43
2022-08-14T05:04:14.586Z,4.97
2022-08-14T05:06:45.016Z,4.40
2022-08-14T05:09:14.379Z,4.20
2022-08-14T05:11:44.206Z,3.70
2022-08-14T05:14:43.461Z,3.83
2022-08-14T05:17:03.278Z,3.87
2022-08-14T05:19:32.899Z,3.70
2022-08-14T05:22:16.624Z,3.83
2022-08-14T05:24:49.696Z,3.67
2022-08-14T05:27:23.279Z,3.53
2022-08-14T05:29:53.105Z,3.87
2022-08-14T05:32:23.262Z,4.00
2022-08-14T05:34:58.457Z,4.00
2022-08-14T05:37:33.473Z,3.83
2022-08-14T05:40:02.196Z,3.13
2022-08-14T05:42:34.005Z,3.67
2022-08-14T05:45:05.698Z,3.80
2022-08-14T05:47:42.895Z,3.40
2022-08-14T05:50:18.759Z,3.40
2022-08-14T05:52:56.045Z,3.10
2022-08-14T05:55:24.591Z,3.50
2022-08-14T05:57:55.098Z,3.17
2022-08-14T06:00:36.881Z,3.53
2022-08-14T06:03:10.722Z,3.07
2022-08-14T06:05:39.300Z,3.17
2022-08-14T06:08:21.834Z,3.23
2022-08-14T06:11:04.789Z,3.43
2022-08-14T06:13:45.713Z,3.60
2022-08-14T06:16:17.424Z,3.53
2022-08-14T06:18:52.707Z,3.57
2022-08-14T06:21:22.632Z,3.30
2022-08-14T06:23:51.465Z,4.03
2022-08-14T06:26:22.465Z,4.07
2022-08-14T06:28:51.970Z,3.60
2022-08-14T06:31:23.019Z,3.23
2022-08-14T06:35:02.813Z,3.60
2022-08-14T06:36:41.841Z,3.80
2022-08-14T06:39:10.899Z,3.77
2022-08-14T06:41:59.248Z,3.80
2022-08-14T06:44:32.440Z,3.83
2022-08-14T06:47:02.174Z,3.90
2022-08-14T06:49:43.524Z,3.70
2022-08-14T06:52:15.421Z,3.57
2022-08-14T06:54:44.893Z,3.93
2022-08-14T06:57:14.225Z,3.60
2022-08-14T06:59:42.502Z,3.88
2022-08-14T07:02:28.904Z,4.07
2022-08-14T07:05:20.961Z,3.92
2022-08-14T07:07:52.053Z,3.97
2022-08-14T07:10:24.746Z,3.83
2022-08-14T07:13:03.757Z,3.70
2022-08-14T07:15:33.989Z,4.15
2022-08-14T07:18:09.343Z,3.80
2022-08-14T07:20:40.181Z,3.40
2022-08-14T07:23:20.943Z,3.63
2022-08-14T07:25:53.796Z,3.45
2022-08-14T07:28:25.267Z,3.58
2022-08-14T07:31:04.420Z,3.40
2022-08-14T07:33:36.188Z,3.40
2022-08-14T07:36:27.308Z,3.45
2022-08-14T07:38:58.091Z,3.00
2022-08-14T07:41:31.432Z,3.55
2022-08-14T07:44:29.326Z,3.30
2022-08-14T07:46:51.244Z,3.45
2022-08-14T07:49:19.917Z,2.92
2022-08-14T07:51:50.747Z,3.50
2022-08-14T07:54:23.359Z,3.60
2022-08-14T07:56:59.843Z,3.20
2022-08-14T07:59:41.363Z,3.42
2022-08-14T08:02:17.075Z,3.20
2022-08-14T08:04:54.080Z,3.30
2022-08-14T08:07:29.432Z,3.10
2022-08-14T08:10:00.779Z,3.72
2022-08-14T08:12:32.429Z,3.80
2022-08-14T08:15:07.666Z,2.88
2022-08-14T08:17:38.608Z,3.90
2022-08-14T08:20:19.919Z,3.38
2022-08-14T08:22:55.847Z,2.95
2022-08-14T08:25:25.407Z,3.28
2022-08-14T08:28:08.043Z,2.83
2022-08-14T08:30:49.689Z,2.78
2022-08-14T08:33:19.332Z,2.67
2022-08-14T08:35:50.741Z,3.35
2022-08-14T08:39:14.739Z,3.08
2022-08-14T08:41:12.908Z,2.85
2022-08-14T08:43:45.941Z,3.00
2022-08-14T08:46:23.483Z,2.90
2022-08-14T08:51:25.170Z,3.30
2022-08-14T08:54:03.192Z,3.13
2022-08-14T08:56:40.190Z,2.80
2022-08-14T08:59:20.870Z,3.30
2022-08-14T09:01:56.373Z,2.90
2022-08-14T09:04:27.220Z,2.95
2022-08-14T09:07:09.096Z,2.70
2022-08-14T09:09:54.008Z,3.17
2022-08-14T09:12:32.103Z,3.08
2022-08-14T09:15:02.408Z,3.15
2022-08-14T09:17:33.401Z,3.30
2022-08-14T09:20:04.119Z,3.00
2022-08-14T09:22:36.712Z,3.00
2022-08-14T09:25:19.472Z,3.25
2022-08-14T09:27:49.339Z,3.22
2022-08-14T09:30:33.020Z,2.60
2022-08-14T09:33:24.330Z,2.55
2022-08-14T09:36:18.731Z,2.38
2022-08-14T09:38:59.165Z,2.22
2022-08-14T09:42:21.104Z,2.10
2022-08-14T09:44:46.085Z,2.33
2022-08-14T09:47:18.746Z,2.35
2022-08-14T09:49:53.049Z,2.05
2022-08-14T09:52:33.788Z,2.20
2022-08-14T09:55:19.740Z,2.00
2022-08-14T09:57:52.039Z,2.17
2022-08-14T10:00:43.513Z,1.92
2022-08-14T10:03:13.179Z,2.40
2022-08-14T10:05:42.027Z,2.10
2022-08-14T10:08:26.122Z,2.47
2022-08-14T10:11:02.574Z,2.00
2022-08-14T10:13:52.737Z,2.08
2022-08-14T10:16:27.403Z,1.95
2022-08-14T10:19:07.660Z,2.10
2022-08-14T10:21:58.842Z,2.20
2022-08-14T10:24:36.750Z,2.17
2022-08-14T10:27:16.371Z,2.10
2022-08-14T10:29:52.576Z,2.25
2022-08-14T10:32:36.196Z,2.20
2022-08-14T10:35:14.695Z,2.30
2022-08-14T10:37:49.886Z,2.10
2022-08-14T10:40:38.711Z,2.20
2022-08-14T10:43:23.316Z,2.17
2022-08-14T10:46:03.578Z,2.10
2022-08-14T10:48:58.537Z,2.13
2022-08-14T10:51:30.033Z,2.00
2022-08-14T10:54:01.934Z,2.08
2022-08-14T10:56:45.555Z,2.22
2022-08-14T10:59:16.560Z,2.50
2022-08-14T11:01:46.690Z,1.98
2022-08-14T11:04:30.280Z,2.17
2022-08-14T11:06:59.838Z,1.92
2022-08-14T11:09:31.723Z,1.70
2022-08-14T11:12:33.928Z,2.30
2022-08-14T11:15:02.082Z,2.40
2022-08-14T11:17:33.172Z,2.00
2022-08-14T11:20:14.084Z,1.80
2022-08-14T11:23:03.185Z,1.98
2022-08-14T11:25:36.714Z,2.00
2022-08-14T11:28:14.691Z,1.38
2022-08-14T11:30:53.683Z,1.85
2022-08-14T11:33:25.473Z,1.90
2022-08-14T11:35:53.868Z,1.90
2022-08-14T11:38:29.133Z,1.73
2022-08-14T11:41:00.380Z,1.60
2022-08-14T11:43:30.628Z,1.50
2022-08-14T11:46:03.694Z,1.80
2022-08-14T11:49:02.200Z,1.40
2022-08-14T11:51:50.909Z,1.55
2022-08-14T11:54:34.954Z,2.00
2022-08-14T11:57:04.471Z,1.90
2022-08-14T11:59:34.158Z,1.50
2022-08-14T12:03:00.440Z,1.60
2022-08-14T12:05:00.640Z,1.70
2022-08-14T12:07:33.698Z,1.60
2022-08-14T12:10:26.938Z,1.70
2022-08-14T12:12:54.885Z,1.60
2022-08-14T12:15:36.028Z,1.35
2022-08-14T12:18:04.917Z,1.30
2022-08-14T12:20:37.533Z,1.42
2022-08-14T12:23:23.537Z,1.25
2022-08-14T12:26:31.777Z,1.30
2022-08-14T12:29:00.105Z,1.50
2022-08-14T12:31:28.731Z,1.40
2022-08-14T12:34:20.673Z,1.70
2022-08-14T12:37:05.617Z,1.60
2022-08-14T12:39:40.058Z,1.50
2022-08-14T12:42:11.921Z,2.10
2022-08-14T12:44:59.914Z,1.30
2022-08-14T12:47:32.436Z,1.67
2022-08-14T12:50:02.343Z,1.70
2022-08-14T12:52:42.971Z,1.42
2022-08-14T12:55:22.411Z,1.75
2022-08-14T12:58:28.621Z,1.60
2022-08-14T13:01:14.290Z,1.88
2022-08-14T13:03:42.638Z,1.73
2022-08-14T13:06:14.681Z,1.77
2022-08-14T13:08:53.103Z,1.80
2022-08-14T13:11:24.004Z,1.55
2022-08-14T13:13:59.628Z,1.90
2022-08-14T13:16:37.960Z,1.77
2022-08-14T13:19:11.213Z,1.67
2022-08-14T13:22:05.427Z,1.88
2022-08-14T13:24:33.415Z,2.28
2022-08-14T13:27:04.753Z,2.33
2022-08-14T13:29:39.663Z,2.40
2022-08-14T13:32:11.027Z,2.50
2022-08-14T13:34:41.103Z,2.58
2022-08-14T13:37:09.633Z,2.10
2022-08-14T13:39:40.117Z,2.60
2022-08-14T13:42:13.767Z,2.72
2022-08-14T13:44:43.201Z,2.58
2022-08-14T13:47:15.257Z,2.47
2022-08-14T13:49:57.606Z,2.53
2022-08-14T13:52:52.652Z,2.80
2022-08-14T13:55:21.722Z,2.70
2022-08-14T13:58:04.579Z,2.38
2022-08-14T14:00:52.899Z,3.05
2022-08-14T14:03:23.516Z,2.88
2022-08-14T14:05:54.904Z,2.80
2022-08-14T14:08:43.277Z,2.53
2022-08-14T14:11:15.914Z,2.92
2022-08-14T14:13:45.337Z,2.65
2022-08-14T14:16:15.451Z,2.95
2022-08-14T14:18:56.050Z,2.78
2022-08-14T14:21:26.615Z,3.00
2022-08-14T14:23:58.049Z,2.80
2022-08-14T14:26:29.272Z,2.92
2022-08-14T14:29:02.644Z,2.83
2022-08-14T14:31:32.560Z,3.03
2022-08-14T14:34:07.686Z,2.70
2022-08-14T14:36:52.748Z,2.80
2022-08-14T14:39:27.595Z,3.25
2022-08-14T14:42:00.806Z,2.55
2022-08-14T14:44:40.308Z,2.30
2022-08-14T14:47:13.881Z,2.88
2022-08-14T14:49:54.633Z,2.72
2022-08-14T14:52:27.561Z,3.10
2022-08-14T14:54:57.694Z,2.75
2022-08-14T14:57:35.582Z,2.80
2022-08-14T15:00:06.839Z,3.08
2022-08-14T15:02:38.393Z,3.42
2022-08-14T15:05:08.121Z,3.10
2022-08-14T15:07:36.945Z,3.35
2022-08-14T15:10:26.387Z,2.83
2022-08-14T15:12:57.786Z,3.13
2022-08-14T15:15:28.658Z,3.13
2022-08-14T15:18:01.296Z,2.85
2022-08-14T15:20:31.469Z,2.88
2022-08-14T15:23:08.072Z,2.65
2022-08-14T15:25:41.392Z,2.50
2022-08-14T15:28:13.163Z,2.88
2022-08-14T15:30:57.707Z,2.90
2022-08-14T15:34:33.238Z,2.65
2022-08-14T15:36:30.141Z,2.40
2022-08-14T15:38:59.619Z,2.67
2022-08-14T15:41:41.326Z,2.60
2022-08-14T15:44:25.463Z,2.78
2022-08-14T15:46:55.703Z,2.63
2022-08-14T15:49:34.434Z,2.65
2022-08-14T15:52:05.035Z,2.65
2022-08-14T15:54:33.939Z,2.63
2022-08-14T15:57:06.063Z,2.40
2022-08-14T15:59:57.276Z,2.75
2022-08-14T16:02:28.485Z,2.83
2022-08-14T16:04:56.804Z,2.90
2022-08-14T16:07:27.184Z,2.72
2022-08-14T16:10:27.617Z,2.72
2022-08-14T16:12:52.450Z,2.85
2022-08-14T16:15:24.284Z,2.78
2022-08-14T16:18:01.435Z,2.90
2022-08-14T16:20:42.595Z,2.88
2022-08-14T16:23:13.560Z,2.95
2022-08-14T16:25:44.557Z,3.20
2022-08-14T16:28:27.430Z,2.42
2022-08-14T16:30:57.643Z,2.67
2022-08-14T16:33:56.475Z,2.50
2022-08-14T16:36:30.428Z,2.70
2022-08-14T16:39:00.298Z,3.55
2022-08-14T16:41:29.459Z,2.65
2022-08-14T16:44:01.907Z,3.47
2022-08-14T16:46:35.311Z,3.40
2022-08-14T16:49:05.680Z,3.88
2022-08-14T16:51:38.397Z,4.20
2022-08-14T16:54:10.635Z,3.47
2022-08-14T16:56:49.664Z,3.67
2022-08-14T16:59:30.567Z,3.72
2022-08-14T17:02:14.109Z,3.50
2022-08-14T17:04:49.168Z,3.35
2022-08-14T17:07:17.682Z,3.50
2022-08-14T17:09:48.931Z,3.17
2022-08-14T17:12:29.096Z,3.22
2022-08-14T17:15:10.871Z,3.13
2022-08-14T17:17:57.878Z,3.28
2022-08-14T17:20:44.419Z,3.67
2022-08-14T17:23:16.368Z,3.03
2022-08-14T17:25:49.341Z,2.75
2022-08-14T17:28:51.971Z,2.60
2022-08-14T17:31:10.121Z,2.55
2022-08-14T17:33:44.641Z,2.80
2022-08-14T17:36:23.955Z,2.70
2022-08-14T17:39:06.178Z,2.70
2022-08-14T17:41:38.714Z,2.80
2022-08-14T17:44:33.810Z,2.70
2022-08-14T17:47:10.621Z,2.53
2022-08-14T17:49:53.877Z,2.40
2022-08-14T17:52:36.548Z,2.30
2022-08-14T17:56:00.397Z,2.40
2022-08-14T17:57:59.924Z,2.53
2022-08-14T18:00:28.650Z,3.00
2022-08-14T18:03:00.151Z,2.47
2022-08-14T18:06:09.598Z,2.50
2022-08-14T18:08:32.085Z,2.42
2022-08-14T18:11:03.251Z,3.08
2022-08-14T18:13:49.772Z,2.42
2022-08-14T18:16:22.823Z,3.08
2022-08-14T18:18:52.172Z,2.28
2022-08-14T18:21:42.273Z,2.60
2022-08-14T18:24:28.258Z,3.60
2022-08-14T18:27:08.621Z,2.58
2022-08-14T18:29:54.824Z,2.88
2022-08-14T18:32:47.534Z,2.65
2022-08-14T18:35:46.249Z,2.85
2022-08-14T18:38:25.450Z,2.72
2022-08-14T18:40:56.315Z,2.60
2022-08-14T18:43:59.102Z,2.70
2022-08-14T18:46:59.808Z,2.70
2022-08-14T18:49:17.806Z,2.83
2022-08-14T18:51:47.076Z,2.63
2022-08-14T18:54:38.429Z,2.60
2022-08-14T18:57:08.972Z,2.50
2022-08-14T18:59:43.128Z,2.95
2022-08-14T19:02:44.490Z,2.67
2022-08-14T19:05:14.424Z,2.60
2022-08-14T19:07:48.188Z,2.85
2022-08-14T19:10:31.629Z,3.03
2022-08-14T19:13:12.271Z,2.50
2022-08-14T19:15:43.926Z,3.33
2022-08-14T19:18:26.644Z,2.97
2022-08-14T19:20:58.328Z,2.80
2022-08-14T19:23:44.242Z,2.95
2022-08-14T19:26:36.932Z,2.47
2022-08-14T19:29:37.466Z,2.78
2022-08-14T19:32:39.750Z,2.50
2022-08-14T19:35:50.005Z,3.13
2022-08-14T19:38:54.224Z,2.63
2022-08-14T19:41:29.689Z,2.78
2022-08-14T19:44:10.936Z,3.22
2022-08-14T19:47:00.537Z,2.50
2022-08-14T19:50:08.357Z,4.25
2022-08-14T19:52:24.542Z,2.58
2022-08-14T19:54:54.361Z,3.10
2022-08-14T19:57:24.964Z,2.42
2022-08-14T20:00:28.754Z,2.60
2022-08-14T20:03:10.586Z,2.95
2022-08-14T20:05:43.103Z,2.58
2022-08-14T20:11:07.295Z,2.72
2022-08-14T20:11:43.394Z,2.65
2022-08-14T20:13:58.945Z,2.40
2022-08-14T20:16:35.415Z,2.58
2022-08-14T20:19:23.223Z,3.08
2022-08-14T20:22:04.726Z,2.67
2022-08-14T20:24:44.464Z,2.83
2022-08-14T20:27:33.651Z,2.40
2022-08-14T20:30:29.057Z,2.78
2022-08-14T20:32:58.593Z,3.00
2022-08-14T20:35:35.700Z,2.90
2022-08-14T20:38:31.232Z,3.10
2022-08-14T20:40:58.972Z,2.40
2022-08-14T20:43:46.826Z,3.25
2022-08-14T20:46:17.117Z,3.20
2022-08-14T20:49:01.337Z,3.03
2022-08-14T20:51:37.078Z,3.20
2022-08-14T20:54:09.596Z,3.20
2022-08-14T20:56:40.776Z,2.70
2022-08-14T20:59:18.155Z,2.92
2022-08-14T21:01:55.170Z,3.03
2022-08-14T21:04:33.426Z,2.65
2022-08-14T21:07:24.675Z,2.70
2022-08-14T21:10:33.240Z,2.80
2022-08-14T21:13:25.984Z,3.88
2022-08-14T21:15:57.401Z,3.33
2022-08-14T21:18:29.770Z,3.25
2022-08-14T21:20:59.954Z,3.38
2022-08-14T21:23:32.785Z,3.40
2022-08-14T21:26:03.668Z,2.67
2022-08-14T21:28:35.552Z,2.70
2022-08-14T21:31:05.536Z,3.13
2022-08-14T21:33:43.033Z,3.15
2022-08-14T21:36:21.657Z,3.38
2022-08-14T21:38:51.038Z,2.85
2022-08-14T21:41:42.534Z,3.22
2022-08-14T21:44:17.426Z,3.10
2022-08-14T21:46:53.340Z,3.10
2022-08-14T21:49:38.330Z,3.08
2022-08-14T21:52:49.144Z,3.05
2022-08-14T21:55:09.338Z,2.90
2022-08-14T21:57:55.719Z,3.10
2022-08-14T22:00:35.414Z,2.83
2022-08-14T22:03:06.248Z,3.15
2022-08-14T22:05:40.384Z,3.15
2022-08-14T22:08:12.470Z,2.78
2022-08-14T22:10:44.839Z,2.70
2022-08-14T22:13:16.908Z,2.92
2022-08-14T22:15:49.619Z,2.80
2022-08-14T22:18:21.138Z,2.80
2022-08-14T22:20:56.679Z,2.70
2022-08-14T22:23:37.535Z,3.13
2022-08-14T22:26:07.829Z,2.97
2022-08-14T22:28:37.683Z,2.80
2022-08-14T22:31:10.507Z,3.10
2022-08-14T22:33:43.029Z,3.10
2022-08-14T22:36:33.634Z,2.80
2022-08-14T22:39:03.375Z,3.00
2022-08-14T22:41:42.652Z,2.67
2022-08-14T22:44:15.350Z,2.85
2022-08-14T22:46:45.250Z,2.25
2022-08-14T22:49:15.559Z,3.20
2022-08-14T22:51:48.581Z,2.72
2022-08-14T22:54:53.065Z,2.75
2022-08-14T22:57:10.407Z,2.90
2022-08-14T22:59:39.775Z,2.63
2022-08-14T23:02:13.677Z,2.70
2022-08-14T23:04:54.500Z,2.75
2022-08-14T23:08:58.839Z,2.40
2022-08-14T23:10:31.929Z,2.55
2022-08-14T23:13:05.152Z,2.58
2022-08-14T23:15:35.142Z,2.72
2022-08-14T23:18:07.371Z,2.63
2022-08-14T23:20:44.441Z,2.60
2022-08-14T23:23:22.866Z,2.70
2022-08-14T23:25:59.815Z,2.88
2022-08-14T23:28:34.676Z,2.90
2022-08-14T23:31:34.377Z,2.78
2022-08-14T23:34:06.922Z,2.28
2022-08-14T23:36:54.503Z,2.88
2022-08-14T23:39:30.121Z,2.42
2022-08-14T23:42:02.278Z,2.65
2022-08-14T23:44:35.060Z,2.67
2022-08-14T23:47:11.533Z,2.42
2022-08-14T23:49:59.928Z,2.55
2022-08-14T23:52:56.162Z,3.13
2022-08-14T23:55:22.640Z,2.80
2022-08-14T23:57:58.345Z,2.60
